地図

経路データ

SID SEASON NUMBER BASIN SUBBASIN NAME ISO_TIME NATURE LAT LON WMO_WIND WMO_PRES WMO_AGENCY TRACK_TYPE DIST2LAND LANDFALL IFLAG USA_AGENCY USA_ATCF_ID USA_LAT USA_LON USA_RECORD USA_STATUS USA_WIND USA_PRES USA_SSHS USA_R34_NE USA_R34_SE USA_R34_SW USA_R34_NW USA_R50_NE USA_R50_SE USA_R50_SW USA_R50_NW USA_R64_NE USA_R64_SE USA_R64_SW USA_R64_NW USA_POCI USA_ROCI USA_RMW USA_EYE TOKYO_LAT TOKYO_LON TOKYO_GRADE TOKYO_WIND TOKYO_PRES TOKYO_R50_DIR TOKYO_R50_LONG TOKYO_R50_SHORT TOKYO_R30_DIR TOKYO_R30_LONG TOKYO_R30_SHORT TOKYO_LAND CMA_LAT CMA_LON CMA_CAT CMA_WIND CMA_PRES HKO_LAT HKO_LON HKO_CAT HKO_WIND HKO_PRES NEWDELHI_LAT NEWDELHI_LON NEWDELHI_GRADE NEWDELHI_WIND NEWDELHI_PRES NEWDELHI_CI NEWDELHI_DP NEWDELHI_POCI REUNION_LAT REUNION_LON REUNION_TYPE REUNION_WIND REUNION_PRES REUNION_TNUM REUNION_CI REUNION_RMW REUNION_R34_NE REUNION_R34_SE REUNION_R34_SW REUNION_R34_NW REUNION_R50_NE REUNION_R50_SE REUNION_R50_SW REUNION_R50_NW REUNION_R64_NE REUNION_R64_SE REUNION_R64_SW REUNION_R64_NW BOM_LAT BOM_LON BOM_TYPE BOM_WIND BOM_PRES BOM_TNUM BOM_CI BOM_RMW BOM_R34_NE BOM_R34_SE BOM_R34_SW BOM_R34_NW BOM_R50_NE BOM_R50_SE BOM_R50_SW BOM_R50_NW BOM_R64_NE BOM_R64_SE BOM_R64_SW BOM_R64_NW BOM_ROCI BOM_POCI BOM_EYE BOM_POS_METHOD BOM_PRES_METHOD NADI_LAT NADI_LON NADI_CAT NADI_WIND NADI_PRES WELLINGTON_LAT WELLINGTON_LON WELLINGTON_WIND WELLINGTON_PRES DS824_LAT DS824_LON DS824_STAGE DS824_WIND DS824_PRES TD9636_LAT TD9636_LON TD9636_STAGE TD9636_WIND TD9636_PRES TD9635_LAT TD9635_LON TD9635_WIND TD9635_PRES TD9635_ROCI NEUMANN_LAT NEUMANN_LON NEUMANN_CLASS NEUMANN_WIND NEUMANN_PRES MLC_LAT MLC_LON MLC_CLASS MLC_WIND MLC_PRES USA_GUST BOM_GUST BOM_GUST_PER REUNION_GUST REUNION_GUST_PER USA_SEAHGT USA_SEARAD_NE USA_SEARAD_SE USA_SEARAD_SW USA_SEARAD_NW STORM_SPEED STORM_DIR
1857229N16276 1857 8 NA CS NOT_NAMED 1857-08-16 12:00:00 TS 15.8000 -84.0000 main 22 22 _____________O -1 15.8000 -84.0000 TS 35 5 326
1857229N16276 1857 8 NA CS NOT_NAMED 1857-08-16 15:00:00 TS 16.0125 -84.1499 main 30 24 _____________P -1 16.0125 -84.1499 TS 37 5 324
1857229N16276 1857 8 NA CS NOT_NAMED 1857-08-16 18:00:00 TS 16.2000 -84.3000 main 44 44 _____________O -1 16.2000 -84.3000 TS 40 4 319
1857229N16276 1857 8 NA CS NOT_NAMED 1857-08-16 21:00:00 TS 16.3500 -84.4501 main 49 49 _____________P -1 16.3500 -84.4501 TS 42 4 316
1857229N16276 1857 8 NA CS NOT_NAMED 1857-08-17 00:00:00 TS 16.5000 -84.6000 main 67 67 _____________O -1 16.5000 -84.6000 TS 45 4 320
1857229N16276 1857 8 NA CS NOT_NAMED 1857-08-17 03:00:00 TS 16.6925 -84.7500 main 89 89 _____________P -1 16.6925 -84.7500 TS 45 5 324
1857229N16276 1857 8 NA CS NOT_NAMED 1857-08-17 06:00:00 TS 16.9000 -84.9000 main 111 111 _____________O -1 16.9000 -84.9000 TS 45 5 324
1857229N16276 1857 8 NA CS NOT_NAMED 1857-08-17 09:00:00 TS 17.1000 -85.0575 main 134 134 _____________P -1 17.1000 -85.0575 TS 45 5 324
1857229N16276 1857 8 NA CS NOT_NAMED 1857-08-17 12:00:00 TS 17.3000 -85.2000 main 156 156 _____________O -1 17.3000 -85.2000 TS 45 5 329
1857229N16276 1857 8 NA CS NOT_NAMED 1857-08-17 15:00:00 TS 17.5075 -85.3150 main 179 179 _____________P -1 17.5075 -85.3150 TS 45 4 335
1857229N16276 1857 8 NA CS NOT_NAMED 1857-08-17 18:00:00 TS 17.7000 -85.4000 main 201 201 _____________O -1 17.7000 -85.4000 TS 45 4 338
1857229N16276 1857 8 NA CS NOT_NAMED 1857-08-17 21:00:00 TS 17.8500 -85.4575 main 212 212 _____________P -1 17.8500 -85.4575 TS 45 3 343
1857229N16276 1857 8 NA CS NOT_NAMED 1857-08-18 00:00:00 TS 18.0000 -85.5000 main 235 234 _____________O -1 18.0000 -85.5000 TS 45 4 345
1857229N16276 1857 8 NA CS NOT_NAMED 1857-08-18 03:00:00 TS 18.1925 -85.5500 main 234 218 _____________P -1 18.1925 -85.5500 TS 47 4 347
1857229N16276 1857 8 NA CS NOT_NAMED 1857-08-18 06:00:00 TS 18.4000 -85.6000 main 218 210 _____________O -1 18.4000 -85.6000 TS 50 4 347
1857229N16276 1857 8 NA CS NOT_NAMED 1857-08-18 09:00:00 TS 18.6000 -85.6500 main 200 194 _____________P -1 18.6000 -85.6500 TS 50 4 347
1857229N16276 1857 8 NA CS NOT_NAMED 1857-08-18 12:00:00 TS 18.8000 -85.7000 main 194 187 _____________O -1 18.8000 -85.7000 TS 50 4 347
1857229N16276 1857 8 NA CS NOT_NAMED 1857-08-18 15:00:00 TS 19.0075 -85.7500 main 177 171 _____________P -1 19.0075 -85.7500 TS 52 4 347
1857229N16276 1857 8 NA CS NOT_NAMED 1857-08-18 18:00:00 TS 19.2000 -85.8000 main 171 169 _____________O -1 19.2000 -85.8000 TS 55 4 345
1857229N16276 1857 8 NA CS NOT_NAMED 1857-08-18 21:00:00 TS 19.3575 -85.8500 main 157 157 _____________P -1 19.3575 -85.8500 TS 55 3 343
1857229N16276 1857 8 NA CS NOT_NAMED 1857-08-19 00:00:00 TS 19.5000 -85.9000 main 157 157 _____________O -1 19.5000 -85.9000 TS 55 3 341
1857229N16276 1857 8 NA CS NOT_NAMED 1857-08-19 03:00:00 TS 19.6425 -85.9500 main 147 146 _____________P -1 19.6425 -85.9500 TS 57 3 343
1857229N16276 1857 8 NA CS NOT_NAMED 1857-08-19 06:00:00 TS 19.8000 -86.0000 main 146 129 _____________O -1 19.8000 -86.0000 TS 60 4 345
1857229N16276 1857 8 NA CS NOT_NAMED 1857-08-19 09:00:00 TS 19.9925 -86.0500 main 129 106 _____________P -1 19.9925 -86.0500 TS 60 4 347
1857229N16276 1857 8 NA CS NOT_NAMED 1857-08-19 12:00:00 TS 20.2000 -86.1000 main 106 94 _____________O -1 20.2000 -86.1000 TS 60 4 347
1857229N16276 1857 8 NA CS NOT_NAMED 1857-08-19 15:00:00 TS 20.4000 -86.1500 main 85 76 _____________P -1 20.4000 -86.1500 TS 62 4 347
1857229N16276 1857 8 NA CS NOT_NAMED 1857-08-19 18:00:00 TS 20.6000 -86.2000 main 76 61 _____________O -1 20.6000 -86.2000 HU 65 4 347
1857229N16276 1857 8 NA CS NOT_NAMED 1857-08-19 21:00:00 TS 20.8000 -86.2500 main 53 42 _____________P -1 20.8000 -86.2500 HU 65 4 347
1857229N16276 1857 8 NA CS NOT_NAMED 1857-08-20 00:00:00 TS 21.0000 -86.3000 main 42 41 _____________O -1 21.0000 -86.3000 HU 65 4 347
1857229N16276 1857 8 NA CS NOT_NAMED 1857-08-20 03:00:00 TS 21.2075 -86.3500 main 33 33 _____________P -1 21.2075 -86.3500 HU 65 4 347
1857229N16276 1857 8 NA CS NOT_NAMED 1857-08-20 06:00:00 TS 21.4000 -86.4000 main 42 38 _____________O -1 21.4000 -86.4000 HU 65 3 340
1857229N16276 1857 8 NA CS NOT_NAMED 1857-08-20 09:00:00 TS 21.5200 -86.4799 main 38 38 _____________P -1 21.5200 -86.4799 HU 65 3 343
1857229N16276 1857 8 NA CS NOT_NAMED 1857-08-20 12:00:00 TS 21.7000 -86.5000 main 53 53 _____________O -1 21.7000 -86.5000 HU 65 6 9
1857229N16276 1857 8 NA GM NOT_NAMED 1857-08-20 15:00:00 TS 22.0700 -86.3876 main 91 91 _____________P -1 22.0700 -86.3876 HU 65 9 19
1857229N16276 1857 8 NA GM NOT_NAMED 1857-08-20 18:00:00 TS 22.5000 -86.2000 main 138 137 _____________O -1 22.5000 -86.2000 HU 65 9 24
1857229N16276 1857 8 NA GM NOT_NAMED 1857-08-20 21:00:00 TS 22.8500 -86.0074 main 151 143 _____________P -1 22.8500 -86.0074 HU 65 8 28
1857229N16276 1857 8 NA GM NOT_NAMED 1857-08-21 00:00:00 TS 23.2000 -85.8000 main 166 166 _____________O -1 23.2000 -85.8000 HU 65 8 27
1857229N16276 1857 8 NA GM NOT_NAMED 1857-08-21 03:00:00 TS 23.5925 -85.5999 main 188 188 _____________P -1 23.5925 -85.5999 HU 65 9 25
1857229N16276 1857 8 NA GM NOT_NAMED 1857-08-21 06:00:00 TS 24.0000 -85.4000 main 203 203 _____________O -1 24.0000 -85.4000 HU 65 9 23
1857229N16276 1857 8 NA GM NOT_NAMED 1857-08-21 09:00:00 TS 24.4524 -85.2076 main 235 235 _____________P -1 24.4524 -85.2076 HU 65 9 25
1857229N16276 1857 8 NA GM NOT_NAMED 1857-08-21 12:00:00 TS 24.8000 -85.0000 main 255 251 _____________O -1 24.8000 -85.0000 HU 65 6 43
1857229N16276 1857 8 NA GM NOT_NAMED 1857-08-21 15:00:00 TS 24.8950 -84.7572 main 258 248 _____________P -1 24.8950 -84.7572 HU 62 5 78
1857229N16276 1857 8 NA GM NOT_NAMED 1857-08-21 18:00:00 TS 24.9000 -84.5000 main 248 241 _____________O -1 24.9000 -84.5000 TS 60 5 78
1857229N16276 1857 8 NA GM NOT_NAMED 1857-08-21 21:00:00 TS 24.9925 -84.2500 main 251 245 _____________P -1 24.9925 -84.2500 TS 57 5 66
1857229N16276 1857 8 NA GM NOT_NAMED 1857-08-22 00:00:00 TS 25.1000 -84.0000 main 247 224 _____________O -1 25.1000 -84.0000 TS 55 5 65
1857229N16276 1857 8 NA GM NOT_NAMED 1857-08-22 03:00:00 TS 25.2075 -83.7500 main 224 192 _____________P -1 25.2075 -83.7500 TS 52 5 66
1857229N16276 1857 8 NA GM NOT_NAMED 1857-08-22 06:00:00 TS 25.3000 -83.5000 main 192 173 _____________O -1 25.3000 -83.5000 TS 50 4 73
1857229N16276 1857 8 NA GM NOT_NAMED 1857-08-22 09:00:00 TS 25.3347 -83.2871 main 173 141 _____________P -1 25.3347 -83.2871 TS 47 5 77
1857229N16276 1857 8 NA GM NOT_NAMED 1857-08-22 12:00:00 TS 25.4000 -83.0000 main 141 96 _____________O -1 25.4000 -83.0000 TS 45 7 70
1857229N16276 1857 8 NA GM NOT_NAMED 1857-08-22 15:00:00 TS 25.5851 -82.5378 main 86 32 _____________P -1 25.5851 -82.5378 TS 42 10 66
1857229N16276 1857 8 NA GM NOT_NAMED 1857-08-22 18:00:00 TS 25.8000 -82.0000 main 32 0 _____________O -1 25.8000 -82.0000 TS 40 10 69
1857229N16276 1857 8 NA NA NOT_NAMED 1857-08-22 21:00:00 TS 25.9498 -81.4997 main 0 0 _____________P -1 25.9498 -81.4997 TS 37 9 72
1857229N16276 1857 8 NA NA NOT_NAMED 1857-08-23 00:00:00 TS 26.1000 -81.0000 main 0 0 _____________O -1 26.1000 -81.0000 TS 35 10 69
1857229N16276 1857 8 NA NA NOT_NAMED 1857-08-23 03:00:00 TS 26.2998 -80.5000 main 0 0 _____________P -1 26.2998 -80.5000 TS 32 10 66
1857229N16276 1857 8 NA NA NOT_NAMED 1857-08-23 06:00:00 TS 26.5000 -80.0000 main 9 9 _____________O -1 26.5000 -80.0000 TD 30 10 68
1857229N16276 1857 8 NA NA NOT_NAMED 1857-08-23 09:00:00 TS 26.6628 -79.5001 main 50 50 _____________P -1 26.6628 -79.5001 TD 25 9 71
1857229N16276 1857 8 NA NA NOT_NAMED 1857-08-23 12:00:00 ET 26.8000 -79.0000 main 99 _____________O -1 26.8000 -79.0000 EX 20 9 73

IBTrACS Databaseについて

本データベースは、米国NOAAが公開する1842年以降の世界の熱帯低気圧のベストトラックデータアーカイブInternational Best Track Archive for Climate Stewardship (IBTrACS)を、ウェブで閲覧しやすい形式に変換したものです。

最終更新日:2021-10-21